createdAt,value
2023-02-05T00:02:45.230Z,-0.38
2023-02-05T00:05:51.016Z,-0.49
2023-02-05T00:08:56.514Z,-0.54
2023-02-05T00:12:01.791Z,-0.55
2023-02-05T00:15:06.783Z,-0.53
2023-02-05T00:18:13.642Z,-0.49
2023-02-05T00:21:21.146Z,-0.39
2023-02-05T00:24:26.496Z,-0.37
2023-02-05T00:27:32.309Z,-0.31
2023-02-05T00:30:38.563Z,-0.39
2023-02-05T00:33:45.046Z,-0.37
2023-02-05T00:36:50.637Z,-0.35
2023-02-05T00:39:57.577Z,-0.32
2023-02-05T00:42:58.597Z,-0.36
2023-02-05T00:46:04.854Z,-0.39
2023-02-05T00:49:10.997Z,-0.43
2023-02-05T00:52:17.862Z,-0.38
2023-02-05T00:55:16.393Z,-0.43
2023-02-05T00:58:22.674Z,-0.44
2023-02-05T01:01:27.786Z,-0.34
2023-02-05T01:04:32.847Z,-0.14
2023-02-05T01:07:38.682Z,0.02
2023-02-05T01:10:45.722Z,0.05
2023-02-05T01:13:51.934Z,0.06
2023-02-05T01:16:58.351Z,0.24
2023-02-05T01:20:03.989Z,0.36
2023-02-05T01:23:09.654Z,0.36
2023-02-05T01:26:15.080Z,0.57
2023-02-05T01:29:21.408Z,0.50
2023-02-05T01:32:27.208Z,0.36
2023-02-05T01:35:33.856Z,0.38
2023-02-05T01:38:39.601Z,0.29
2023-02-05T01:41:47.653Z,0.23
2023-02-05T01:44:54.155Z,0.28
2023-02-05T01:48:01.307Z,0.26
2023-02-05T01:51:03.662Z,0.45
2023-02-05T01:54:02.562Z,0.55
2023-02-05T01:57:11.280Z,0.54
2023-02-05T02:00:18.739Z,0.54
2023-02-05T02:03:27.041Z,0.53
2023-02-05T02:06:33.387Z,0.69
2023-02-05T02:09:39.843Z,0.75
2023-02-05T02:12:48.514Z,0.62
2023-02-05T02:15:54.556Z,0.41
2023-02-05T02:19:00.710Z,0.33
2023-02-05T02:22:35.438Z,0.23
2023-02-05T02:26:19.714Z,0.16
2023-02-05T02:29:30.811Z,0.29
2023-02-05T02:32:52.091Z,0.36
2023-02-05T02:36:00.334Z,0.47
2023-02-05T02:39:19.102Z,0.57
2023-02-05T02:42:38.591Z,0.58
2023-02-05T02:45:45.154Z,0.41
2023-02-05T02:48:51.138Z,0.50
2023-02-05T02:51:57.369Z,0.75
2023-02-05T02:55:03.453Z,0.70
2023-02-05T02:58:10.250Z,0.65
2023-02-05T03:01:16.370Z,0.55
2023-02-05T03:04:30.287Z,0.50
2023-02-05T03:07:45.750Z,0.50
2023-02-05T03:10:58.360Z,0.43
2023-02-05T03:14:04.277Z,0.37
2023-02-05T03:17:10.058Z,0.31
2023-02-05T03:20:26.032Z,0.25
2023-02-05T03:23:32.106Z,0.22
2023-02-05T03:26:42.936Z,0.23
2023-02-05T03:29:53.695Z,0.24
2023-02-05T03:33:40.515Z,0.24
2023-02-05T03:37:16.623Z,0.19
2023-02-05T03:40:38.959Z,0.14
2023-02-05T03:44:10.424Z,0.15
2023-02-05T03:47:24.524Z,0.30
2023-02-05T03:50:40.510Z,0.11
2023-02-05T03:53:49.769Z,0.23
2023-02-05T03:56:52.391Z,0.23
2023-02-05T03:59:58.829Z,0.28
2023-02-05T04:03:07.429Z,0.28
2023-02-05T04:06:14.048Z,0.21
2023-02-05T04:09:20.857Z,0.39
2023-02-05T04:12:28.190Z,0.53
2023-02-05T04:15:34.800Z,0.52
2023-02-05T04:18:41.966Z,0.54
2023-02-05T04:21:47.505Z,0.49
2023-02-05T04:24:53.414Z,0.53
2023-02-05T04:28:00.447Z,0.62
2023-02-05T04:31:07.232Z,0.65
2023-02-05T04:34:14.801Z,0.82
2023-02-05T04:37:21.496Z,0.73
2023-02-05T04:40:27.442Z,0.65
2023-02-05T04:43:33.977Z,0.68
2023-02-05T04:46:39.057Z,0.68
2023-02-05T04:49:47.606Z,0.69
2023-02-05T04:52:54.307Z,0.63
2023-02-05T04:56:01.574Z,0.67
2023-02-05T04:59:07.101Z,0.69
2023-02-05T05:02:14.967Z,0.58
2023-02-05T05:05:21.439Z,0.52
2023-02-05T05:08:29.399Z,0.61
2023-02-05T05:11:35.758Z,0.63
2023-02-05T05:14:40.522Z,0.80
2023-02-05T05:17:46.472Z,0.88
2023-02-05T05:20:52.928Z,0.81
2023-02-05T05:23:59.608Z,0.84
2023-02-05T05:27:05.500Z,0.90
2023-02-05T05:30:11.323Z,0.85
2023-02-05T05:33:17.523Z,0.74
2023-02-05T05:36:23.232Z,0.90
2023-02-05T05:39:47.631Z,0.91
2023-02-05T05:43:11.884Z,0.90
2023-02-05T05:46:17.161Z,0.99
2023-02-05T05:49:22.890Z,0.96
2023-02-05T05:52:29.785Z,0.94
2023-02-05T05:55:35.637Z,0.92
2023-02-05T05:58:41.017Z,0.85
2023-02-05T06:01:46.028Z,0.94
2023-02-05T06:04:52.639Z,0.80
2023-02-05T06:07:59.661Z,0.72
2023-02-05T06:11:06.149Z,0.91
2023-02-05T06:14:13.027Z,0.79
2023-02-05T06:17:17.928Z,0.65
2023-02-05T06:20:24.778Z,0.62
2023-02-05T06:23:31.083Z,0.76
2023-02-05T06:26:36.860Z,0.78
2023-02-05T06:29:43.159Z,0.79
2023-02-05T06:32:47.963Z,0.99
2023-02-05T06:35:54.571Z,1.02
2023-02-05T06:39:00.381Z,0.95
2023-02-05T06:42:05.899Z,0.95
2023-02-05T06:45:26.027Z,1.02
2023-02-05T06:48:31.773Z,1.06
2023-02-05T06:51:37.836Z,1.11
2023-02-05T06:54:42.919Z,1.17
2023-02-05T06:57:48.511Z,1.17
2023-02-05T07:00:48.701Z,1.35
2023-02-05T07:03:41.650Z,1.38
2023-02-05T07:06:46.883Z,1.53
2023-02-05T07:09:53.376Z,1.46
2023-02-05T07:12:59.761Z,1.59
2023-02-05T07:16:06.179Z,1.52
2023-02-05T07:19:07.068Z,1.68
2023-02-05T07:22:14.793Z,1.88
2023-02-05T07:25:22.228Z,1.87
2023-02-05T07:28:28.266Z,1.93
2023-02-05T07:31:35.267Z,1.97
2023-02-05T07:34:40.877Z,2.13
2023-02-05T07:37:48.799Z,2.26
2023-02-05T07:40:54.500Z,2.30
2023-02-05T07:44:00.099Z,2.29
2023-02-05T07:47:06.543Z,2.48
2023-02-05T07:50:14.488Z,2.42
2023-02-05T07:53:20.933Z,2.18
2023-02-05T07:56:30.144Z,2.20
2023-02-05T07:59:37.096Z,2.24
2023-02-05T08:02:42.706Z,2.79
2023-02-05T08:05:48.550Z,2.65
2023-02-05T08:08:55.444Z,2.48
2023-02-05T08:12:02.517Z,3.22
2023-02-05T08:15:08.082Z,1.90
2023-02-05T08:18:14.559Z,2.93
2023-02-05T08:21:20.051Z,3.37
2023-02-05T08:24:26.842Z,3.63
2023-02-05T08:27:33.616Z,4.19
2023-02-05T08:30:40.687Z,4.40
2023-02-05T08:33:47.551Z,4.32
2023-02-05T08:36:53.478Z,4.60
2023-02-05T08:39:59.106Z,4.96
2023-02-05T08:43:07.259Z,4.71
2023-02-05T08:46:15.104Z,4.67
2023-02-05T08:49:20.642Z,4.52
2023-02-05T08:52:26.029Z,4.45
2023-02-05T08:55:32.060Z,4.47
2023-02-05T08:58:37.847Z,5.04
2023-02-05T09:01:47.093Z,4.71
2023-02-05T09:05:01.796Z,3.75
2023-02-05T09:08:00.430Z,3.41
2023-02-05T09:11:06.482Z,3.02
2023-02-05T09:14:13.710Z,2.89
2023-02-05T09:17:27.422Z,2.99
2023-02-05T09:20:33.518Z,2.71
2023-02-05T09:23:41.124Z,2.72
2023-02-05T09:26:49.995Z,2.80
2023-02-05T09:29:55.479Z,2.72
2023-02-05T09:33:02.290Z,2.60
2023-02-05T09:36:08.732Z,2.66
2023-02-05T09:39:30.760Z,2.35
2023-02-05T09:42:52.465Z,2.24
2023-02-05T09:46:26.088Z,2.17
2023-02-05T09:49:58.052Z,2.19
2023-02-05T09:53:04.570Z,2.07
2023-02-05T09:56:06.453Z,1.93
2023-02-05T09:58:58.532Z,1.94
2023-02-05T10:02:06.346Z,2.26
2023-02-05T10:05:01.975Z,2.29
2023-02-05T10:08:18.086Z,2.35
2023-02-05T10:11:11.396Z,2.49
2023-02-05T10:14:29.388Z,2.51
2023-02-05T10:18:15.549Z,2.56
2023-02-05T10:21:54.456Z,2.68
2023-02-05T10:25:41.492Z,2.90
2023-02-05T10:29:14.581Z,2.91
2023-02-05T10:32:35.135Z,3.19
2023-02-05T10:36:07.569Z,3.11
2023-02-05T10:39:17.229Z,3.06
2023-02-05T10:42:42.985Z,3.05
2023-02-05T10:45:48.665Z,3.15
2023-02-05T10:49:11.110Z,3.23
2023-02-05T10:52:17.277Z,3.32
2023-02-05T10:55:27.092Z,3.25
2023-02-05T10:59:16.532Z,3.27
2023-02-05T11:02:24.488Z,2.86
2023-02-05T11:05:49.189Z,2.99
2023-02-05T11:08:58.225Z,3.06
2023-02-05T11:12:10.538Z,3.14
2023-02-05T11:15:17.375Z,3.16
2023-02-05T11:18:30.622Z,2.94
2023-02-05T11:21:36.275Z,2.89
2023-02-05T11:24:50.960Z,3.39
2023-02-05T11:28:14.464Z,2.96
2023-02-05T11:31:50.013Z,2.78
2023-02-05T11:34:55.295Z,2.63
2023-02-05T11:38:06.628Z,2.76
2023-02-05T11:41:18.574Z,2.73
2023-02-05T11:44:35.880Z,2.60
2023-02-05T11:47:50.982Z,2.52
2023-02-05T11:51:00.595Z,2.39
2023-02-05T11:54:14.553Z,2.46
2023-02-05T11:57:37.628Z,2.23
2023-02-05T12:00:46.505Z,2.20
2023-02-05T12:03:51.999Z,2.16
2023-02-05T12:07:08.413Z,2.15
2023-02-05T12:10:15.909Z,2.08
2023-02-05T12:13:56.443Z,2.13
2023-02-05T12:17:16.770Z,2.29
2023-02-05T12:20:47.901Z,2.22
2023-02-05T12:24:40.970Z,2.08
2023-02-05T12:28:20.593Z,2.16
2023-02-05T12:32:17.079Z,2.33
2023-02-05T12:36:15.785Z,2.24
2023-02-05T12:39:47.351Z,2.23
2023-02-05T12:42:52.135Z,2.46
2023-02-05T12:46:21.786Z,2.78
2023-02-05T12:50:05.502Z,2.87
2023-02-05T12:53:50.882Z,2.73
2023-02-05T12:57:24.099Z,2.75
2023-02-05T13:00:39.091Z,2.88
2023-02-05T13:04:01.791Z,2.69
2023-02-05T13:07:15.154Z,2.51
2023-02-05T13:10:23.452Z,2.77
2023-02-05T13:13:35.352Z,2.94
2023-02-05T13:16:45.216Z,2.94
2023-02-05T13:20:05.438Z,2.90
2023-02-05T13:23:28.574Z,2.57
2023-02-05T13:26:54.689Z,2.26
2023-02-05T13:30:04.907Z,2.19
2023-02-05T13:33:14.735Z,1.58
2023-02-05T13:36:57.476Z,1.89
2023-02-05T13:40:35.771Z,2.36
2023-02-05T13:43:48.599Z,2.26
2023-02-05T13:47:26.294Z,1.78
2023-02-05T13:51:00.643Z,0.95
2023-02-05T13:54:29.808Z,0.78
2023-02-05T13:57:43.159Z,0.67
2023-02-05T14:00:50.131Z,0.71
2023-02-05T14:04:00.256Z,0.72
2023-02-05T14:07:23.103Z,0.68
2023-02-05T14:10:50.168Z,0.74
2023-02-05T14:13:56.925Z,0.81
2023-02-05T14:16:55.971Z,0.74
2023-02-05T14:20:01.469Z,0.75
2023-02-05T14:22:54.902Z,1.42
2023-02-05T14:25:58.055Z,1.52
2023-02-05T14:28:58.391Z,1.62
2023-02-05T14:32:04.705Z,1.00
2023-02-05T14:35:47.211Z,1.14
2023-02-05T14:38:53.088Z,0.99
2023-02-05T14:42:07.408Z,0.79
2023-02-05T14:45:14.099Z,0.69
2023-02-05T14:48:20.118Z,1.17
2023-02-05T14:51:57.629Z,1.23
2023-02-05T14:55:08.166Z,1.11
2023-02-05T14:58:21.378Z,1.05
2023-02-05T15:01:56.605Z,1.15
2023-02-05T15:05:04.415Z,1.15
2023-02-05T15:08:33.445Z,0.96
2023-02-05T15:12:04.696Z,0.74
2023-02-05T15:15:13.964Z,0.70
2023-02-05T15:18:38.861Z,0.81
2023-02-05T15:22:01.367Z,0.69
2023-02-05T15:25:07.975Z,1.13
2023-02-05T15:28:25.064Z,1.20
2023-02-05T15:31:58.334Z,0.97
2023-02-05T15:35:10.447Z,0.98
2023-02-05T15:38:30.887Z,1.01
2023-02-05T15:41:36.979Z,0.88
2023-02-05T15:44:48.946Z,0.95
2023-02-05T15:47:55.783Z,0.63
2023-02-05T15:51:10.009Z,0.83
2023-02-05T15:54:17.764Z,0.72
2023-02-05T15:57:29.802Z,0.58
2023-02-05T16:00:39.235Z,0.57
2023-02-05T16:03:51.060Z,0.55
2023-02-05T16:06:58.349Z,0.46
2023-02-05T16:10:08.096Z,0.53
2023-02-05T16:13:33.619Z,0.93
2023-02-05T16:16:38.765Z,0.71
2023-02-05T16:19:57.276Z,0.73
2023-02-05T16:23:16.278Z,0.91
2023-02-05T16:26:29.451Z,0.89
2023-02-05T16:29:25.764Z,0.68
2023-02-05T16:32:16.364Z,0.68
2023-02-05T16:35:10.652Z,0.76
2023-02-05T16:38:16.668Z,0.77
2023-02-05T16:41:47.197Z,0.65
2023-02-05T16:44:54.450Z,0.98
2023-02-05T16:48:03.410Z,1.02
2023-02-05T16:51:11.903Z,0.91
2023-02-05T16:54:29.839Z,0.83
2023-02-05T16:57:43.506Z,0.38
2023-02-05T17:00:49.183Z,0.83
2023-02-05T17:03:58.053Z,0.92
2023-02-05T17:07:05.305Z,0.90
2023-02-05T17:10:27.633Z,0.81
2023-02-05T17:13:58.077Z,0.50
2023-02-05T17:17:33.310Z,0.84
2023-02-05T17:20:42.819Z,0.76
2023-02-05T17:23:48.844Z,0.93
2023-02-05T17:26:54.888Z,0.74
2023-02-05T17:30:02.906Z,0.69
2023-02-05T17:33:09.852Z,0.43
2023-02-05T17:36:15.739Z,0.81
2023-02-05T17:39:21.571Z,0.91
2023-02-05T17:42:37.819Z,1.01
2023-02-05T17:45:47.566Z,0.90
2023-02-05T17:48:54.697Z,0.70
2023-02-05T17:52:01.767Z,0.62
2023-02-05T17:55:07.467Z,0.35
2023-02-05T17:58:14.034Z,0.33
2023-02-05T18:01:20.334Z,0.41
2023-02-05T18:04:28.699Z,0.94
2023-02-05T18:07:51.120Z,0.69
2023-02-05T18:11:00.166Z,1.00
2023-02-05T18:14:07.080Z,0.56
2023-02-05T18:17:13.361Z,0.55
2023-02-05T18:20:20.221Z,0.55
2023-02-05T18:23:29.024Z,0.49
2023-02-05T18:26:34.220Z,0.77
2023-02-05T18:29:42.155Z,0.62
2023-02-05T18:32:47.188Z,0.44
2023-02-05T18:35:54.380Z,0.66
2023-02-05T18:39:01.906Z,0.69
2023-02-05T18:42:08.640Z,0.34
2023-02-05T18:45:14.278Z,0.37
2023-02-05T18:48:21.829Z,0.34
2023-02-05T18:51:29.835Z,0.17
2023-02-05T18:54:36.630Z,0.31
2023-02-05T18:57:43.037Z,0.49
2023-02-05T19:00:48.449Z,0.29
2023-02-05T19:03:54.717Z,0.42
2023-02-05T19:07:04.660Z,0.18
2023-02-05T19:10:10.393Z,0.44
2023-02-05T19:13:17.011Z,0.41
2023-02-05T19:16:25.324Z,0.67
2023-02-05T19:19:34.675Z,0.21
2023-02-05T19:22:41.410Z,0.08
2023-02-05T19:25:49.015Z,0.32
2023-02-05T19:28:56.206Z,-0.16
2023-02-05T19:32:01.667Z,0.03
2023-02-05T19:35:04.977Z,0.14
2023-02-05T19:38:10.986Z,0.12
2023-02-05T19:41:21.798Z,0.24
2023-02-05T19:44:29.317Z,0.38
2023-02-05T19:47:37.289Z,0.02
2023-02-05T19:50:43.653Z,0.08
2023-02-05T19:53:52.321Z,0.43
2023-02-05T19:56:59.124Z,0.08
2023-02-05T20:00:04.989Z,0.04
2023-02-05T20:03:11.060Z,0.20
2023-02-05T20:06:22.531Z,0.11
2023-02-05T20:09:28.816Z,0.14
2023-02-05T20:12:36.500Z,0.30
2023-02-05T20:15:42.410Z,0.08
2023-02-05T20:18:48.890Z,0.16
2023-02-05T20:21:55.885Z,0.99
2023-02-05T20:25:01.672Z,0.23
2023-02-05T20:28:07.900Z,0.00
2023-02-05T20:31:33.258Z,0.70
2023-02-05T20:34:42.849Z,0.70
2023-02-05T20:37:50.300Z,0.44
2023-02-05T20:40:56.544Z,0.64
2023-02-05T20:44:04.316Z,0.40
2023-02-05T20:47:09.859Z,0.73
2023-02-05T20:50:16.416Z,0.56
2023-02-05T20:53:23.399Z,0.37
2023-02-05T20:56:35.928Z,0.38
2023-02-05T20:59:44.875Z,0.44
2023-02-05T21:02:51.308Z,0.62
2023-02-05T21:05:58.211Z,0.72
2023-02-05T21:09:05.779Z,0.55
2023-02-05T21:12:13.334Z,0.50
2023-02-05T21:15:21.718Z,0.51
2023-02-05T21:18:27.984Z,0.46
2023-02-05T21:21:41.301Z,0.07
2023-02-05T21:24:47.811Z,0.01
2023-02-05T21:27:53.730Z,0.18
2023-02-05T21:31:00.119Z,0.15
2023-02-05T21:34:07.752Z,-0.05
2023-02-05T21:37:13.908Z,0.04
2023-02-05T21:40:21.638Z,0.23
2023-02-05T21:43:27.255Z,0.54
2023-02-05T21:46:33.288Z,0.07
2023-02-05T21:49:41.006Z,0.35
2023-02-05T21:52:41.612Z,-0.11
2023-02-05T21:55:49.369Z,-0.11
2023-02-05T21:58:56.028Z,-0.10
2023-02-05T22:02:02.653Z,-0.12
2023-02-05T22:05:10.359Z,0.23
2023-02-05T22:08:15.742Z,0.00
2023-02-05T22:11:25.017Z,-0.07
2023-02-05T22:14:32.879Z,-0.05
2023-02-05T22:17:38.729Z,-0.11
2023-02-05T22:20:46.578Z,0.16
2023-02-05T22:23:52.657Z,0.15
2023-02-05T22:27:00.894Z,0.08
2023-02-05T22:30:08.184Z,0.14
2023-02-05T22:33:17.625Z,-0.10
2023-02-05T22:36:25.459Z,0.06
2023-02-05T22:39:33.213Z,-0.10
2023-02-05T22:42:39.716Z,-0.17
2023-02-05T22:45:47.693Z,-0.20
2023-02-05T22:48:58.374Z,0.06
2023-02-05T22:52:07.604Z,0.17
2023-02-05T22:55:14.728Z,0.11
2023-02-05T22:58:22.431Z,0.28
2023-02-05T23:01:35.799Z,0.21
2023-02-05T23:04:42.349Z,0.22
2023-02-05T23:07:47.842Z,0.12
2023-02-05T23:10:54.368Z,0.33
2023-02-05T23:14:02.390Z,0.67
2023-02-05T23:17:09.282Z,0.85
2023-02-05T23:20:14.749Z,0.30
2023-02-05T23:23:21.475Z,0.30
2023-02-05T23:26:32.262Z,0.39
2023-02-05T23:29:39.925Z,0.29
2023-02-05T23:32:46.696Z,0.16
2023-02-05T23:35:52.665Z,-0.24
2023-02-05T23:38:59.421Z,0.04
2023-02-05T23:42:05.155Z,0.15
2023-02-05T23:45:10.900Z,0.03
2023-02-05T23:48:17.343Z,0.13
2023-02-05T23:51:23.260Z,0.61
2023-02-05T23:54:29.452Z,0.11
2023-02-05T23:57:37.240Z,0.06
